Time;durP1;ratioP1;P1;durP2;ratioP2;P2;SDS_P1;SDS_P2;PMS_P1;PMS_P2;Temp;Humidity;BMP_temperature;BMP_pressure;BME280_temperature;BME280_humidity;BME280_pressure;Samples;Min_cycle;Max_cycle;Signal;HPM_P1;HPM_P2
2022/11/13 00:02:20;;;;;;;17.20;8.53;;;;;;;5.59;100.00;101130.92;1579735;91;21094;-81
2022/11/13 00:05:06;;;;;;;19.17;8.83;;;;;;;5.60;100.00;101124.60;1579684;89;21078;-81
2022/11/13 00:07:51;;;;;;;19.40;9.40;;;;;;;5.64;100.00;101131.94;1579950;91;21099;-81
2022/11/13 00:10:38;;;;;;;16.37;7.90;;;;;;;5.67;100.00;101125.02;1579495;89;21062;-81
2022/11/13 00:13:23;;;;;;;18.07;8.13;;;;;;;5.68;100.00;101125.37;1579593;91;21149;-80
2022/11/13 00:16:12;;;;;;;17.93;8.07;;;;;;;5.70;100.00;101119.40;1579794;90;21090;-81
2022/11/13 00:18:58;;;;;;;20.10;8.43;;;;;;;5.70;100.00;101119.40;1529481;94;21132;-81
2022/11/13 00:21:44;;;;;;;20.13;9.23;;;;;;;5.72;100.00;101106.75;1529354;94;21182;-81
2022/11/13 00:24:30;;;;;;;18.60;8.27;;;;;;;5.72;100.00;101109.44;1532288;89;21142;-82
2022/11/13 00:27:16;;;;;;;19.57;8.60;;;;;;;5.74;100.00;101110.17;1583093;89;21086;-80
2022/11/13 00:30:01;;;;;;;18.10;7.63;;;;;;;5.77;100.00;101096.53;1595969;90;21060;-80
2022/11/13 00:32:47;;;;;;;20.97;9.07;;;;;;;5.81;100.00;101099.84;1583689;91;21167;-81
2022/11/13 00:35:32;;;;;;;19.27;8.27;;;;;;;5.82;100.00;101089.46;1596706;86;21105;-79
2022/11/13 00:38:17;;;;;;;22.07;8.90;;;;;;;5.84;100.00;101087.52;1585171;91;21027;-78
2022/11/13 00:41:03;;;;;;;18.13;8.53;;;;;;;5.87;100.00;101087.30;1596478;90;21061;-82
2022/11/13 00:43:48;;;;;;;22.67;10.17;;;;;;;5.89;100.00;101082.16;1583636;90;21074;-81
2022/11/13 00:46:34;;;;;;;19.23;7.77;;;;;;;5.92;100.00;101082.94;1596214;90;21124;-81
2022/11/13 00:49:19;;;;;;;16.00;7.97;;;;;;;5.94;100.00;101079.14;1584230;91;21081;-81
2022/11/13 00:52:04;;;;;;;18.13;8.57;;;;;;;5.95;100.00;101074.63;1580241;91;21081;-80
2022/11/13 00:54:49;;;;;;;18.73;8.77;;;;;;;5.96;100.00;101069.67;1580560;89;21041;-82
2022/11/13 00:57:34;;;;;;;17.77;8.57;;;;;;;5.96;100.00;101062.95;1579689;90;21122;-82
2022/11/13 01:00:19;;;;;;;18.17;8.37;;;;;;;5.95;100.00;101053.14;1576101;90;21080;-81
2022/11/13 01:03:05;;;;;;;18.80;8.40;;;;;;;5.95;100.00;101051.80;1577010;91;21082;-81
2022/11/13 01:05:52;;;;;;;17.20;8.13;;;;;;;5.95;100.00;101047.78;1578755;91;21596;-81
2022/11/13 01:08:37;;;;;;;19.20;8.27;;;;;;;5.95;100.00;101047.31;1560223;92;21114;-81
2022/11/13 01:11:25;;;;;;;18.77;8.53;;;;;;;5.97;100.00;101048.58;1561878;91;21168;-80
2022/11/13 01:14:11;;;;;;;20.50;8.10;;;;;;;5.96;100.00;101045.02;1588037;89;21067;-82
2022/11/13 01:16:56;;;;;;;17.60;8.13;;;;;;;5.97;100.00;101034.66;1658628;86;21026;-80
2022/11/13 01:19:42;;;;;;;18.00;9.00;;;;;;;5.97;100.00;101044.05;1648274;85;21014;-81
2022/11/13 01:22:28;;;;;;;19.23;8.67;;;;;;;5.96;100.00;101041.48;1659063;85;21495;-80
2022/11/13 01:25:13;;;;;;;20.20;8.63;;;;;;;5.96;100.00;101038.30;1658599;86;21074;-81
2022/11/13 01:27:59;;;;;;;17.10;7.40;;;;;;;5.96;100.00;101037.45;1658104;84;21030;-81
2022/11/13 01:30:46;;;;;;;19.80;7.73;;;;;;;5.95;100.00;101035.70;1658006;86;21022;-81
2022/11/13 01:33:33;;;;;;;18.77;8.80;;;;;;;5.94;100.00;101032.16;1658564;85;21053;-80
2022/11/13 01:36:26;;;;;;;15.47;7.87;;;;;;;5.96;100.00;101026.72;1657865;86;21018;-81
2022/11/13 01:39:13;;;;;;;20.70;8.80;;;;;;;5.95;100.00;101027.64;1657848;86;21512;-82
2022/11/13 01:42:00;;;;;;;16.73;7.60;;;;;;;5.97;100.00;101022.58;1657743;86;21086;-81
2022/11/13 01:45:01;;;;;;;15.33;7.57;;;;;;;5.98;100.00;101026.95;1658109;86;21062;-82
2022/11/13 01:47:46;;;;;;;17.63;7.70;;;;;;;5.98;100.00;101028.30;1657972;86;21539;-83
2022/11/13 01:50:32;;;;;;;21.53;9.17;;;;;;;6.00;100.00;101029.06;1658274;85;21038;-82
2022/11/13 01:53:17;;;;;;;21.20;9.10;;;;;;;6.02;100.00;101034.28;1667952;86;21022;-83
2022/11/13 01:56:04;;;;;;;18.87;8.80;;;;;;;6.02;100.00;101023.08;1655699;87;20998;-81
2022/11/13 01:59:01;;;;;;;18.17;8.67;;;;;;;6.05;100.00;101039.43;1627617;88;21051;-83
2022/11/13 02:01:47;;;;;;;22.07;10.03;;;;;;;6.06;100.00;101027.73;1655656;86;21665;-81
2022/11/13 02:04:35;;;;;;;18.07;8.60;;;;;;;6.05;100.00;101024.66;1633885;88;21149;-80
2022/11/13 02:07:21;;;;;;;20.10;9.03;;;;;;;6.06;100.00;101035.78;1624807;88;21075;-81
2022/11/13 02:10:08;;;;;;;19.27;8.03;;;;;;;6.06;100.00;101021.86;1665840;85;21014;-82
2022/11/13 02:12:54;;;;;;;17.50;7.70;;;;;;;6.07;100.00;101023.59;1658148;86;21065;-82
2022/11/13 02:15:39;;;;;;;19.37;8.70;;;;;;;6.08;100.00;101027.97;1658092;82;21101;-82
2022/11/13 02:18:25;;;;;;;17.50;8.33;;;;;;;6.09;100.00;101024.79;1657885;86;21499;-81
2022/11/13 02:21:25;;;;;;;17.80;8.23;;;;;;;6.11;100.00;101033.61;1658192;86;21053;-82
2022/11/13 02:24:33;;;;;;;17.67;8.17;;;;;;;6.13;100.00;101032.15;1657193;86;20999;-82
2022/11/13 02:27:26;;;;;;;17.87;7.93;;;;;;;6.16;100.00;101031.89;1657506;85;21058;-83
2022/11/13 02:30:25;;;;;;;18.80;8.53;;;;;;;6.17;100.00;101025.56;1633376;87;21623;-81
2022/11/13 02:33:32;;;;;;;22.53;8.50;;;;;;;6.18;100.00;101028.12;1604551;89;21046;-83
2022/11/13 02:36:19;;;;;;;18.93;8.67;;;;;;;6.19;100.00;101033.85;1633674;87;21023;-82
2022/11/13 02:39:09;;;;;;;18.80;8.40;;;;;;;6.23;100.00;101039.84;1633418;88;21051;-83
2022/11/13 02:41:57;;;;;;;19.20;8.57;;;;;;;6.23;100.00;101034.00;1604251;90;21054;-84
2022/11/13 02:44:44;;;;;;;16.27;7.97;;;;;;;6.26;100.00;101040.95;1633663;87;21540;-82
2022/11/13 02:47:30;;;;;;;17.70;7.60;;;;;;;6.29;100.00;101036.70;1604110;90;21073;-83
2022/11/13 02:50:17;;;;;;;17.70;8.77;;;;;;;6.32;100.00;101037.81;1633330;87;21079;-82
2022/11/13 02:53:03;;;;;;;20.77;9.27;;;;;;;6.33;100.00;101036.81;1604099;89;21038;-81
2022/11/13 02:55:52;;;;;;;22.30;8.70;;;;;;;6.32;100.00;101034.25;1633431;87;21063;-82
2022/11/13 02:58:37;;;;;;;17.77;8.07;;;;;;;6.32;100.00;101040.50;1604376;90;21070;-84
2022/11/13 03:01:23;;;;;;;17.47;8.20;;;;;;;6.33;100.00;101036.81;1630530;87;21027;-81
2022/11/13 03:04:10;;;;;;;17.87;8.03;;;;;;;6.33;100.00;101031.45;1630024;88;21038;-83
2022/11/13 03:06:55;;;;;;;18.13;8.40;;;;;;;6.34;100.00;101035.86;1630334;88;21026;-83
2022/11/13 03:09:41;;;;;;;18.73;8.27;;;;;;;6.35;100.00;101030.83;1629983;87;21097;-83
2022/11/13 03:12:30;;;;;;;17.37;8.23;;;;;;;6.36;100.00;101032.55;1630378;88;21034;-83
2022/11/13 03:15:17;;;;;;;16.53;8.07;;;;;;;6.36;100.00;101033.90;1629798;88;21102;-83
2022/11/13 03:18:05;;;;;;;16.77;7.50;;;;;;;6.34;100.00;101031.83;1630069;88;21022;-83
2022/11/13 03:20:52;;;;;;;18.40;8.77;;;;;;;6.33;100.00;101026.08;1630065;88;21100;-82
2022/11/13 03:23:38;;;;;;;17.00;7.73;;;;;;;6.30;100.00;101030.33;1630153;88;21058;-82
2022/11/13 03:26:26;;;;;;;18.60;7.63;;;;;;;6.31;100.00;101029.38;1641015;86;21657;-83
2022/11/13 03:29:12;;;;;;;16.00;7.73;;;;;;;6.31;100.00;101022.66;1632562;86;21083;-81
2022/11/13 03:32:02;;;;;;;17.53;8.30;;;;;;;6.28;100.00;101022.88;1661496;86;21062;-83
2022/11/13 03:34:47;;;;;;;18.53;7.77;;;;;;;6.30;100.00;101028.98;1632769;88;21058;-83
2022/11/13 03:37:37;;;;;;;19.20;8.10;;;;;;;6.32;100.00;101031.56;1655831;87;21065;-81
2022/11/13 03:40:24;;;;;;;21.77;8.80;;;;;;;6.34;100.00;101038.55;1634787;88;21066;-82
2022/11/13 03:43:09;;;;;;;21.20;9.17;;;;;;;6.37;100.00;101032.06;1607471;89;21090;-82
2022/11/13 03:46:00;;;;;;;20.50;9.07;;;;;;;6.38;100.00;101038.66;1665092;86;21046;-83
2022/11/13 03:48:45;;;;;;;20.77;8.93;;;;;;;6.40;100.00;101038.05;1635195;88;21030;-82
2022/11/13 03:51:31;;;;;;;26.13;10.70;;;;;;;6.44;100.00;101030.11;1659845;86;21032;-83
2022/11/13 03:54:17;;;;;;;20.17;9.20;;;;;;;6.44;100.00;101030.61;1656287;86;21063;-85
2022/11/13 03:57:02;;;;;;;18.53;8.77;;;;;;;6.44;100.00;101023.39;1632923;88;21077;-84
2022/11/13 03:59:49;;;;;;;18.37;9.17;;;;;;;6.45;100.00;101022.92;1607061;89;21027;-82
2022/11/13 04:02:37;;;;;;;20.63;8.13;;;;;;;6.46;100.00;101027.30;1664813;86;21003;-85
2022/11/13 04:05:22;;;;;;;17.73;8.37;;;;;;;6.46;100.00;101030.88;1635060;87;21022;-83
2022/11/13 04:08:09;;;;;;;19.70;8.87;;;;;;;6.48;100.00;101034.78;1635035;87;21584;-85
2022/11/13 04:10:57;;;;;;;18.63;8.47;;;;;;;6.50;100.00;101040.02;1663613;86;21617;-83
2022/11/13 04:13:43;;;;;;;19.03;8.23;;;;;;;6.51;100.00;101035.86;1641625;87;21039;-84
2022/11/13 04:16:33;;;;;;;18.70;8.40;;;;;;;6.53;100.00;101046.00;1665720;86;21046;-85
2022/11/13 04:19:22;;;;;;;16.90;8.00;;;;;;;6.54;100.00;101041.00;1665426;86;21046;-84
2022/11/13 04:22:12;;;;;;;17.83;8.07;;;;;;;6.56;100.00;101043.58;1635303;86;21015;-83
2022/11/13 04:25:01;;;;;;;22.00;8.67;;;;;;;6.59;100.00;101052.75;1598236;89;21011;-84
2022/11/13 04:27:54;;;;;;;17.73;7.97;;;;;;;6.61;100.00;101052.98;1599397;86;21087;-84
2022/11/13 04:30:43;;;;;;;17.77;8.37;;;;;;;6.63;100.00;101055.55;1607923;87;21061;-84
2022/11/13 04:33:28;;;;;;;18.23;8.87;;;;;;;6.66;100.00;101060.69;1607937;89;21071;-85
2022/11/13 04:36:14;;;;;;;19.57;8.57;;;;;;;6.68;100.00;101056.05;1607893;88;21450;-85
2022/11/13 04:38:59;;;;;;;19.93;9.13;;;;;;;6.69;100.00;101053.71;1624248;88;21014;-83
2022/11/13 04:44:52;;;;;;;;;;;;;;;6.75;100.00;101056.42;1642557;87;21051;-83
2022/11/13 04:47:37;;;;;;;18.43;8.43;;;;;;;6.79;100.00;101064.61;1654038;84;20195;-85
2022/11/13 04:50:22;;;;;;;19.40;8.50;;;;;;;6.81;100.00;101068.87;1654644;85;20968;-84
2022/11/13 04:53:08;;;;;;;18.20;7.57;;;;;;;6.82;100.00;101066.56;1624553;84;21539;-84
2022/11/13 04:55:53;;;;;;;19.00;8.80;;;;;;;6.86;100.00;101072.55;1612744;89;21071;-84
2022/11/13 04:58:39;;;;;;;17.67;8.60;;;;;;;6.89;100.00;101080.38;1612649;89;21023;-85
2022/11/13 05:01:26;;;;;;;20.73;8.93;;;;;;;6.92;100.00;101080.61;1590798;89;21973;-85
2022/11/13 05:04:16;;;;;;;17.37;7.77;;;;;;;6.97;100.00;101084.64;1612399;89;21063;-86
2022/11/13 05:07:05;;;;;;;17.27;8.47;;;;;;;7.04;100.00;101077.79;1612323;89;21110;-85
2022/11/13 05:09:51;;;;;;;17.40;7.87;;;;;;;7.16;100.00;101078.65;1612460;89;21036;-84
2022/11/13 05:12:42;;;;;;;18.27;8.07;;;;;;;7.27;100.00;101091.23;1612639;89;21092;-86
2022/11/13 05:15:28;;;;;;;15.47;7.27;;;;;;;7.37;100.00;101093.55;1612815;89;21027;-84
2022/11/13 05:18:15;;;;;;;14.53;6.80;;;;;;;7.46;100.00;101101.87;1612792;89;21047;-86
2022/11/13 05:21:06;;;;;;;15.67;7.33;;;;;;;7.52;100.00;101110.27;1612424;89;21063;-84
2022/11/13 05:23:53;;;;;;;15.60;7.40;;;;;;;7.58;100.00;101125.94;1612597;88;21036;-84
2022/11/13 05:26:39;;;;;;;14.33;7.07;;;;;;;7.63;100.00;101121.50;1612583;89;21036;-84
2022/11/13 05:29:27;;;;;;;12.03;6.47;;;;;;;7.68;100.00;101127.37;1625113;87;21125;-84
2022/11/13 05:32:15;;;;;;;13.53;6.20;;;;;;;7.71;100.00;101121.73;1635305;87;21057;-82
2022/11/13 05:35:01;;;;;;;9.60;5.33;;;;;;;7.76;100.00;101128.95;1607898;89;21050;-87
2022/11/13 05:37:49;;;;;;;9.03;4.93;;;;;;;7.79;100.00;101126.02;1658347;86;21039;-85
2022/11/13 05:40:40;;;;;;;9.47;4.20;;;;;;;7.84;100.00;101120.23;1634973;87;21007;-85
2022/11/13 05:43:28;;;;;;;10.70;5.60;;;;;;;7.88;100.00;101119.48;1635313;86;21058;-86
2022/11/13 05:46:17;;;;;;;7.07;4.33;;;;;;;7.92;100.00;101123.66;1605786;89;21081;-85
2022/11/13 05:49:04;;;;;;;11.10;5.33;;;;;;;7.95;100.00;101113.95;1646810;86;21097;-84
2022/11/13 05:51:53;;;;;;;8.03;4.93;;;;;;;7.97;100.00;101106.12;1664794;86;21163;-83
2022/11/13 05:54:40;;;;;;;10.80;5.47;;;;;;;8.01;100.00;101114.80;1647939;86;21046;-83
2022/11/13 05:57:25;;;;;;;10.13;5.20;;;;;;;8.03;100.00;101107.94;1665203;86;21086;-84
2022/11/13 06:00:15;;;;;;;13.03;5.50;;;;;;;8.04;100.00;101105.13;1664524;84;21150;-83
2022/11/13 06:03:01;;;;;;;7.60;4.73;;;;;;;8.05;100.00;101097.89;1666399;84;21094;-83
2022/11/13 06:05:50;;;;;;;6.57;4.63;;;;;;;8.06;100.00;101104.50;1665301;86;21098;-83
2022/11/13 06:08:36;;;;;;;12.73;5.40;;;;;;;8.07;100.00;101106.19;1664569;86;21067;-83
2022/11/13 06:11:25;;;;;;;7.47;4.47;;;;;;;8.10;100.00;101103.75;1664451;84;21047;-83
2022/11/13 06:14:13;;;;;;;6.37;4.07;;;;;;;8.11;100.00;101094.66;1665004;85;21062;-83
2022/11/13 06:17:00;;;;;;;7.97;4.57;;;;;;;8.14;100.00;101087.68;1662728;84;21536;-83
2022/11/13 06:19:47;;;;;;;6.80;3.77;;;;;;;8.18;100.00;101087.80;1662904;86;21054;-82
2022/11/13 06:22:34;;;;;;;7.73;4.03;;;;;;;8.21;100.00;101083.98;1645313;86;21050;-82
2022/11/13 06:25:21;;;;;;;5.77;3.80;;;;;;;8.24;100.00;101080.53;1662025;85;21543;-83
2022/11/13 06:28:07;;;;;;;4.97;3.50;;;;;;;8.29;100.00;101082.34;1661077;85;21069;-82
2022/11/13 06:30:54;;;;;;;4.30;3.13;;;;;;;8.33;100.00;101070.81;1635411;87;21097;-81
2022/11/13 06:33:40;;;;;;;6.17;3.47;;;;;;;8.36;100.00;101076.79;1623077;88;21057;-82
2022/11/13 06:36:34;;;;;;;3.30;2.93;;;;;;;8.40;100.00;101073.34;1611935;85;21047;-82
2022/11/13 06:39:21;;;;;;;4.23;3.07;;;;;;;8.43;100.00;101070.42;1616985;86;21132;-81
2022/11/13 06:42:09;;;;;;;7.03;3.47;;;;;;;8.46;100.00;101061.20;1616305;87;21064;-81
2022/11/13 06:44:54;;;;;;;6.70;3.30;;;;;;;8.51;100.00;101057.63;1617771;88;21089;-81
2022/11/13 06:47:42;;;;;;;3.57;2.80;;;;;;;8.54;100.00;101050.63;1616778;88;21057;-80
2022/11/13 06:50:28;;;;;;;3.40;2.70;;;;;;;8.58;100.00;101044.47;1616581;88;21029;-81
2022/11/13 06:53:13;;;;;;;3.33;3.00;;;;;;;8.60;100.00;101033.05;1616534;88;21057;-81
2022/11/13 06:55:59;;;;;;;3.47;2.67;;;;;;;8.63;100.00;101013.92;1617178;87;21006;-82
2022/11/13 06:58:45;;;;;;;5.00;3.30;;;;;;;8.68;100.00;101008.98;1616303;88;21109;-81
2022/11/13 07:01:30;;;;;;;4.90;3.17;;;;;;;8.67;100.00;100997.32;1560918;91;21239;-80
2022/11/13 07:04:15;;;;;;;5.77;3.60;;;;;;;8.69;100.00;100996.72;1557901;92;21112;-83
2022/11/13 07:07:03;;;;;;;7.40;3.97;;;;;;;8.70;100.00;100988.97;1562185;90;21126;-80
2022/11/13 07:09:51;;;;;;;6.07;3.70;;;;;;;8.71;100.00;100979.03;1583308;90;21072;-81
2022/11/13 07:12:38;;;;;;;7.03;3.83;;;;;;;8.73;100.00;100966.29;1579591;90;21093;-83
2022/11/13 07:15:24;;;;;;;4.93;3.70;;;;;;;8.76;100.00;100958.41;1569958;91;21091;-82
2022/11/13 07:18:09;;;;;;;6.07;3.67;;;;;;;8.77;100.00;100955.58;1577371;90;21100;-81
2022/11/13 07:20:55;;;;;;;4.10;3.30;;;;;;;8.79;100.00;100944.66;1583682;90;21100;-82
2022/11/13 07:23:42;;;;;;;5.87;3.40;;;;;;;8.81;100.00;100934.58;1565293;92;21075;-79
2022/11/13 07:26:27;;;;;;;4.80;3.27;;;;;;;8.84;100.00;100935.66;1577618;90;21131;-82
2022/11/13 07:29:12;;;;;;;6.87;3.87;;;;;;;8.86;100.00;100926.42;1594462;89;21131;-81
2022/11/13 07:31:58;;;;;;;7.80;3.73;;;;;;;8.89;100.00;100921.27;1611989;87;21099;-82
2022/11/13 07:34:44;;;;;;;4.67;3.60;;;;;;;8.91;100.00;100919.28;1614825;86;21094;-81
2022/11/13 07:37:31;;;;;;;4.73;3.37;;;;;;;8.94;100.00;100920.33;1629431;87;21105;-81
2022/11/13 07:40:17;;;;;;;7.47;3.30;;;;;;;8.96;100.00;100914.33;1601242;90;21066;-80
2022/11/13 07:43:03;;;;;;;7.13;3.07;;;;;;;9.00;100.00;100904.11;1629119;88;21164;-81
2022/11/13 07:45:53;;;;;;;5.40;3.20;;;;;;;9.02;100.00;100893.52;1602393;90;21136;-80
2022/11/13 07:48:38;;;;;;;3.47;2.73;;;;;;;9.05;100.00;100887.02;1629161;86;21077;-80
2022/11/13 07:51:23;;;;;;;5.17;3.50;;;;;;;9.06;100.00;100886.00;1602132;90;21031;-82
2022/11/13 07:54:09;;;;;;;5.33;3.20;;;;;;;9.08;100.00;100878.61;1629143;88;21101;-81
2022/11/13 07:56:57;;;;;;;5.00;3.27;;;;;;;9.09;100.00;100874.94;1602230;90;21114;-80
2022/11/13 07:59:44;;;;;;;6.07;3.43;;;;;;;9.11;100.00;100868.89;1636612;87;21027;-81
2022/11/13 08:02:29;;;;;;;5.30;3.63;;;;;;;9.15;100.00;100860.02;1636448;86;21026;-80
2022/11/13 08:05:15;;;;;;;5.67;3.80;;;;;;;9.17;100.00;100855.33;1659976;86;21054;-80
2022/11/13 08:08:02;;;;;;;6.90;3.73;;;;;;;9.21;100.00;100856.77;1619411;88;21553;-83
2022/11/13 08:10:47;;;;;;;6.60;3.87;;;;;;;9.23;100.00;100848.03;1660173;86;21485;-84
2022/11/13 08:13:34;;;;;;;3.70;3.30;;;;;;;9.24;100.00;100830.35;1666731;86;21074;-81
2022/11/13 08:16:22;;;;;;;7.33;3.57;;;;;;;9.25;100.00;100814.50;1667780;86;21043;-79
2022/11/13 08:19:09;;;;;;;6.93;4.20;;;;;;;9.27;100.00;100803.05;1655278;87;21075;-78
2022/11/13 08:21:54;;;;;;;7.47;3.77;;;;;;;9.28;100.00;100785.03;1637649;84;21042;-81
2022/11/13 08:24:41;;;;;;;6.93;4.10;;;;;;;9.30;100.00;100761.45;1609455;88;21043;-82
2022/11/13 08:27:32;;;;;;;6.17;3.77;;;;;;;9.33;100.00;100738.70;1660603;86;21034;-78
2022/11/13 08:30:19;;;;;;;4.90;3.90;;;;;;;9.36;100.00;100718.17;1645356;85;21053;-82
2022/11/13 08:33:05;;;;;;;4.00;3.20;;;;;;;9.39;100.00;100688.20;1645364;86;21062;-83
2022/11/13 08:35:55;;;;;;;10.20;4.27;;;;;;;9.42;100.00;100662.23;1639249;87;21060;-82
2022/11/13 08:38:44;;;;;;;7.30;4.30;;;;;;;9.43;100.00;100617.55;1636714;88;21058;-84
2022/11/13 08:41:29;;;;;;;7.43;4.30;;;;;;;9.49;100.00;100589.11;1643686;86;21092;-83
2022/11/13 08:44:14;;;;;;;7.00;4.17;;;;;;;9.53;100.00;100565.39;1644330;87;21125;-86
2022/11/13 08:47:01;;;;;;;8.13;3.90;;;;;;;9.58;100.00;100546.38;1644370;83;21041;-82
2022/11/13 08:49:47;;;;;;;4.70;3.57;;;;;;;9.64;100.00;100522.80;1637136;83;21046;-81
2022/11/13 08:52:33;;;;;;;4.20;3.30;;;;;;;9.71;100.00;100508.19;1636272;88;21519;-81
2022/11/13 08:55:19;;;;;;;4.67;3.87;;;;;;;9.80;100.00;100497.80;1636049;88;21062;-80
2022/11/13 08:58:05;;;;;;;4.53;3.62;;;;;;;9.89;100.00;100481.17;1643155;87;21025;-81
2022/11/13 09:00:52;;;;;;;5.45;3.52;;;;;;;10.01;100.00;100473.17;1636392;88;21058;-83
2022/11/13 09:03:39;;;;;;;4.40;3.60;;;;;;;10.08;100.00;100452.62;1643251;87;21045;-81
2022/11/13 09:06:24;;;;;;;6.10;3.83;;;;;;;10.07;100.00;100426.63;1643020;86;21130;-81
2022/11/13 09:09:10;;;;;;;5.90;3.90;;;;;;;10.12;100.00;100403.68;1636504;88;21054;-80
2022/11/13 09:11:57;;;;;;;7.47;4.35;;;;;;;10.17;100.00;100382.44;1642961;87;21026;-81
2022/11/13 09:14:43;;;;;;;6.45;4.35;;;;;;;10.22;100.00;100361.18;1643288;87;21053;-80
2022/11/13 09:17:30;;;;;;;7.10;4.12;;;;;;;10.25;100.00;100339.22;1643186;87;21038;-79
2022/11/13 09:20:18;;;;;;;7.35;4.22;;;;;;;10.28;100.00;100310.52;1643167;87;21045;-75
2022/11/13 09:23:05;;;;;;;4.62;3.37;;;;;;;10.35;100.00;100284.56;1645103;87;21051;-77
2022/11/13 09:25:52;;;;;;;6.35;3.45;;;;;;;10.38;100.00;100253.16;1672026;86;21078;-77
2022/11/13 09:28:39;;;;;;;5.03;3.60;;;;;;;10.40;100.00;100236.27;1627955;84;21099;-76
2022/11/13 09:31:26;;;;;;;6.33;4.20;;;;;;;10.51;100.00;100239.67;1660965;86;21508;-75
2022/11/13 09:34:13;;;;;;;6.03;3.47;;;;;;;10.77;100.00;100242.26;1635502;88;20999;-76
2022/11/13 09:37:01;;;;;;;7.80;4.28;;;;;;;10.91;100.00;100236.70;1661134;86;21078;-76
2022/11/13 09:39:48;;;;;;;8.68;3.70;;;;;;;11.04;100.00;100239.72;1635560;88;21027;-77
2022/11/13 09:42:34;;;;;;;9.68;4.60;;;;;;;11.09;100.00;100247.34;1665869;86;21105;-76
2022/11/13 09:45:19;;;;;;;6.75;3.77;;;;;;;11.04;100.00;100266.78;1656154;87;21023;-76
2022/11/13 09:48:18;;;;;;;3.90;3.45;;;;;;;10.96;100.00;100273.53;1666401;86;21090;-75
2022/11/13 09:51:13;;;;;;;4.80;3.60;;;;;;;10.99;100.00;100278.09;1612209;88;21590;-76
2022/11/13 09:54:03;;;;;;;8.88;4.67;;;;;;;11.04;100.00;100284.89;1533722;90;21088;-77
2022/11/13 09:57:33;;;;;;;6.12;4.05;;;;;;;11.07;100.00;100289.97;1533642;92;21063;-77
2022/11/13 10:00:19;;;;;;;4.67;3.70;;;;;;;11.08;100.00;100293.00;1524292;94;21087;-76
2022/11/13 10:03:32;;;;;;;9.85;6.00;;;;;;;11.05;100.00;100294.68;1524750;91;21156;-77
2022/11/13 10:06:38;;;;;;;9.13;4.62;;;;;;;11.09;100.00;100293.35;1507794;95;21128;-74
2022/11/13 10:09:46;;;;;;;6.53;4.15;;;;;;;11.12;100.00;100290.28;1516387;93;21116;-76
2022/11/13 10:12:32;;;;;;;11.45;7.83;;;;;;;11.07;100.00;100293.52;1517460;94;21104;-77
2022/11/13 10:15:17;;;;;;;8.65;4.95;;;;;;;11.00;100.00;100289.79;1519865;94;21085;-77
2022/11/13 10:18:14;;;;;;;11.90;5.40;;;;;;;10.93;100.00;100295.53;1520452;94;21116;-81
2022/11/13 10:21:34;;;;;;;8.98;5.25;;;;;;;10.96;100.00;100297.88;1520800;93;21781;-86
2022/11/13 10:24:26;;;;;;;9.53;4.80;;;;;;;11.14;100.00;100287.77;1480478;94;21121;-84
2022/11/13 10:27:13;;;;;;;5.75;4.10;;;;;;;11.43;100.00;100295.03;1479264;97;21137;-83
2022/11/13 10:29:59;;;;;;;4.00;3.42;;;;;;;11.70;100.00;100289.22;1472731;94;21655;-82
2022/11/13 10:32:47;;;;;;;4.75;3.80;;;;;;;12.00;100.00;100284.63;1464571;97;21113;-84
2022/11/13 10:36:15;;;;;;;3.65;3.27;;;;;;;12.15;100.00;100282.36;1470653;97;21064;-85
2022/11/13 10:39:12;;;;;;;5.53;3.20;;;;;;;12.13;100.00;100300.67;1485732;96;21093;-85
2022/11/13 10:42:05;;;;;;;4.50;3.40;;;;;;;11.97;100.00;100310.22;1462131;97;21142;-85
2022/11/13 10:44:58;;;;;;;4.25;3.50;;;;;;;11.95;100.00;100305.45;1476518;97;21192;-84
2022/11/13 10:47:50;;;;;;;7.50;4.62;;;;;;;12.02;100.00;100302.91;1488873;96;21105;-85
2022/11/13 10:50:36;;;;;;;8.98;5.03;;;;;;;12.05;100.00;100303.41;1485310;96;21074;-83
2022/11/13 10:53:21;;;;;;;9.23;4.97;;;;;;;12.08;100.00;100303.58;1496257;95;21053;-84
2022/11/13 10:56:31;;;;;;;8.43;4.72;;;;;;;12.17;100.00;100309.82;1496276;95;21118;-81
2022/11/13 10:59:18;;;;;;;11.95;6.92;;;;;;;12.29;100.00;100316.55;1490392;95;21676;-81
2022/11/13 11:02:23;;;;;;;10.40;4.72;;;;;;;12.47;100.00;100316.30;1514565;95;21074;-83
2022/11/13 11:05:25;;;;;;;9.78;5.25;;;;;;;12.62;100.00;100317.74;1509062;95;21132;-84
2022/11/13 11:08:13;;;;;;;11.40;5.92;;;;;;;12.60;100.00;100317.91;1493617;96;21689;-84
2022/11/13 11:14:33;;;;;;;11.08;5.22;;;;;;;12.52;100.00;100324.23;1516775;92;21172;-84
2022/11/13 11:17:19;;;;;;;11.63;5.03;;;;;;;12.46;100.00;100318.67;1470900;98;21096;-85
2022/11/13 11:20:44;;;;;;;8.53;5.10;;;;;;;12.59;100.00;100309.95;1479222;96;21073;-83
2022/11/13 11:23:59;;;;;;;8.95;5.45;;;;;;;12.66;100.00;100306.37;1491262;96;21128;-82
2022/11/13 11:27:06;;;;;;;9.58;4.92;;;;;;;12.66;100.00;100319.06;1489617;96;21115;-86
2022/11/13 11:30:17;;;;;;;7.85;5.08;;;;;;;12.63;100.00;100318.92;1508133;91;21093;-82
2022/11/13 11:33:29;;;;;;;11.73;5.55;;;;;;;12.59;100.00;100318.09;1475362;96;21163;-84
2022/11/13 11:36:52;;;;;;;11.38;5.47;;;;;;;12.65;100.00;100321.47;1448835;99;21168;-82
2022/11/13 11:39:49;;;;;;;11.12;5.60;;;;;;;12.61;100.00;100316.08;1431368;99;21166;-84
2022/11/13 11:42:49;;;;;;;11.25;5.85;;;;;;;12.57;100.00;100322.36;1455704;97;21091;-84
2022/11/13 11:45:43;;;;;;;9.83;5.60;;;;;;;12.63;100.00;100320.80;1430142;99;22042;-85
2022/11/13 11:48:31;;;;;;;13.53;6.62;;;;;;;12.75;100.00;100322.09;1456477;98;21150;-83
2022/11/13 11:51:47;;;;;;;9.95;5.55;;;;;;;12.86;100.00;100316.25;1456510;97;21154;-82
2022/11/13 11:54:43;;;;;;;10.32;6.00;;;;;;;12.96;100.00;100317.88;1416315;100;21148;-83
2022/11/13 11:57:53;;;;;;;11.95;6.08;;;;;;;13.16;100.00;100328.61;1415658;101;21126;-85
2022/11/13 12:00:50;;;;;;;14.18;6.67;;;;;;;13.37;100.00;100317.59;1401835;99;21149;-84
2022/11/13 12:04:16;;;;;;;18.32;8.13;;;;;;;13.66;100.00;100319.56;1390162;103;21772;-84
2022/11/13 12:07:27;;;;;;;12.03;5.92;;;;;;;13.95;100.00;100316.05;1356342;104;21213;-85
2022/11/13 12:10:39;;;;;;;11.15;5.28;;;;;;;14.03;100.00;100326.81;1345048;105;21210;-86
2022/11/13 12:14:04;;;;;;;12.18;5.87;;;;;;;14.36;100.00;100317.42;1354557;104;21270;-85
2022/11/13 12:17:26;;;;;;;8.48;4.65;;;;;;;14.77;100.00;100317.77;1342643;104;21170;-84
2022/11/13 12:20:46;;;;;;;8.88;4.35;;;;;;;15.09;100.00;100328.39;1339987;102;21188;-84
2022/11/13 12:24:16;;;;;;;10.68;4.62;;;;;;;15.06;100.00;100341.02;1322630;105;21201;-85
2022/11/13 12:27:25;;;;;;;10.23;4.33;;;;;;;15.01;100.00;100345.67;1370397;104;21191;-85
2022/11/13 12:30:44;;;;;;;7.62;4.83;;;;;;;14.93;100.00;100355.34;1381795;102;21244;-86
2022/11/13 12:33:55;;;;;;;7.10;4.00;;;;;;;14.64;100.00;100358.42;1470151;95;21057;-87
2022/11/13 12:40:01;;;;;;;12.33;4.75;;;;;;;14.24;100.00;100357.35;1460925;98;21166;-87
2022/11/13 12:43:10;;;;;;;10.48;4.87;;;;;;;14.09;100.00;100346.97;1469208;96;21208;-85
2022/11/13 12:46:01;;;;;;;7.42;4.60;;;;;;;14.03;100.00;100349.93;1490983;96;21138;-89
2022/11/13 12:48:50;;;;;;;6.92;4.15;;;;;;;14.03;100.00;100359.97;1473278;98;21114;-84
2022/11/13 12:51:42;;;;;;;7.53;3.95;;;;;;;13.94;100.00;100359.73;1473018;97;21115;-86
2022/11/13 12:54:37;;;;;;;7.08;4.15;;;;;;;13.86;100.00;100363.35;1473170;97;21039;-87
2022/11/13 12:57:26;;;;;;;5.35;3.55;;;;;;;13.78;100.00;100370.25;1492536;95;21128;-88
2022/11/13 13:00:27;;;;;;;5.62;3.75;;;;;;;13.68;100.00;100367.25;1520910;94;21124;-89
2022/11/13 13:03:50;;;;;;;7.47;3.87;;;;;;;13.61;100.00;100370.37;1530838;93;21116;-88
2022/11/13 13:07:03;;;;;;;3.90;3.50;;;;;;;13.53;100.00;100365.52;1531666;93;21119;-91
2022/11/13 13:10:20;;;;;;;10.43;4.53;;;;;;;13.12;100.00;100370.73;1510264;95;21122;-85
2022/11/13 13:13:39;;;;;;;6.95;3.77;;;;;;;13.12;100.00;100370.73;1505125;95;21072;-84
2022/11/13 13:16:30;;;;;;;5.10;3.55;;;;;;;12.94;100.00;100375.57;1457333;99;21083;-87
2022/11/13 13:19:27;;;;;;;;;;;;;;;12.77;100.00;100380.26;1458303;99;21143;-85